Lodge, Illinois
Current Conditions -  °F | °C
As of 11:53 PM on Friday 19 Dec 2014 (Local Time) from KCMI Reporting Station
Haze Haze  
Wind Chill: 25°   Ceiling: Unl
Heat Index: 25°   Visibility: 4mi
Dew Point: 23°   Wind: 3mph
Humidity: 92%   Direction: 100°E
Pressure: 30.28"   Gusts: NA
Location:  40.0093°N, 88.5358°W
Report Text: KCMI 200553Z AUTO 10003KT 4SM BR CLR M04/M05 A3028 RMK AO2 SLP262 T10391050 11017 21039 400111089 53005
Loading
Personal Weather Stations






























Interactive Weather Map New forecast layout! Learn more

10-Day Weather Forecast

Advertisements
Track Severe Weather on mobile